Time;durP1;ratioP1;P1;durP2;ratioP2;P2;SDS_P1;SDS_P2;PMS_P1;PMS_P2;Temp;Humidity;BMP_temperature;BMP_pressure;BME280_temperature;BME280_humidity;BME280_pressure;Samples;Min_cycle;Max_cycle;Signal;HPM_P1;HPM_P2
2022/03/05 00:01:08;;;;;;;30.90;16.27;;;1.00;99.90;;;;;;5051675;28;20128;-68
2022/03/05 00:03:34;;;;;;;29.67;16.57;;;;;;;;;;5052340;28;20025;-68
2022/03/05 00:06:00;;;;;;;29.57;15.80;;;;;;;;;;5051228;28;20029;-68
2022/03/05 00:08:26;;;;;;;29.27;14.83;;;;;;;;;;5052292;28;20056;-68
2022/03/05 00:10:52;;;;;;;29.50;14.97;;;;;;;;;;5051652;28;20451;-68
2022/03/05 00:13:18;;;;;;;35.17;16.60;;;1.40;99.90;;;;;;5048144;28;20029;-68
2022/03/05 00:15:43;;;;;;;35.40;16.83;;;1.50;99.90;;;;;;5031669;28;20025;-68
2022/03/05 00:18:10;;;;;;;33.27;15.37;;;;;;;;;;5031374;28;20108;-68
2022/03/05 00:20:35;;;;;;;32.23;16.03;;;;;;;;;;5030123;28;20037;-68
2022/03/05 00:23:01;;;;;;;35.50;18.27;;;1.20;99.90;;;;;;5043849;28;20033;-68
2022/03/05 00:25:27;;;;;;;36.87;17.50;;;;;;;;;;5051600;28;20044;-68
2022/03/05 00:27:53;;;;;;;32.50;16.37;;;1.00;99.90;;;;;;5051150;28;20051;-68
2022/03/05 00:30:20;;;;;;;29.53;16.63;;;;;;;;;;5051901;28;20066;-68
2022/03/05 00:32:46;;;;;;;33.90;16.53;;;0.60;99.90;;;;;;5051347;28;20033;-68
2022/03/05 00:35:12;;;;;;;34.60;19.57;;;1.00;99.90;;;;;;5050754;28;20021;-68
2022/03/05 00:37:37;;;;;;;32.47;16.27;;;0.80;99.90;;;;;;5051607;28;20036;-68
2022/03/05 00:40:04;;;;;;;34.87;16.97;;;0.90;99.90;;;;;;5050982;28;20060;-68
2022/03/05 00:42:30;;;;;;;32.43;17.93;;;;;;;;;;5050427;28;20409;-68
2022/03/05 00:44:56;;;;;;;31.20;15.53;;;0.70;99.90;;;;;;5051124;28;20025;-68
2022/03/05 00:47:22;;;;;;;27.03;14.83;;;;;;;;;;5051431;28;20029;-68
2022/03/05 00:49:48;;;;;;;38.63;16.20;;;;;;;;;;5050840;28;20029;-68
2022/03/05 00:52:14;;;;;;;29.50;14.87;;;;;;;;;;5051381;28;20025;-68
2022/03/05 00:54:39;;;;;;;29.93;15.27;;;0.60;99.90;;;;;;5051467;28;20033;-68
2022/03/05 00:57:05;;;;;;;30.97;16.67;;;;;;;;;;5050977;28;20029;-68
2022/03/05 00:59:31;;;;;;;40.20;17.93;;;0.50;99.90;;;;;;5051200;28;20024;-68
2022/03/05 01:01:57;;;;;;;32.63;15.57;;;;;;;;;;5050673;28;20059;-68
2022/03/05 01:04:23;;;;;;;35.87;15.40;;;0.70;99.90;;;;;;5050836;28;20051;-68
2022/03/05 01:06:49;;;;;;;25.43;13.23;;;;;;;;;;5050314;28;20427;-69
2022/03/05 01:09:14;;;;;;;38.07;18.03;;;0.50;99.90;;;;;;5051022;28;20029;-68
2022/03/05 01:11:40;;;;;;;32.03;16.50;;;0.60;99.90;;;;;;5051061;28;20111;-69
2022/03/05 01:14:07;;;;;;;38.80;19.43;;;0.60;99.90;;;;;;5050735;28;20064;-69
2022/03/05 01:16:34;;;;;;;29.60;15.00;;;;;;;;;;5050936;28;20033;-68
2022/03/05 01:19:00;;;;;;;30.57;16.37;;;0.40;99.90;;;;;;5050035;28;20028;-68
2022/03/05 01:21:25;;;;;;;37.33;19.97;;;0.60;99.90;;;;;;5050902;28;20425;-68
2022/03/05 01:23:51;;;;;;;38.30;18.07;;;0.30;99.90;;;;;;5050167;28;20060;-68
2022/03/05 01:26:17;;;;;;;37.10;16.40;;;0.20;99.90;;;;;;5050482;28;20029;-68
2022/03/05 01:28:42;;;;;;;35.57;17.00;;;0.50;99.90;;;;;;5050540;28;20045;-68
2022/03/05 01:31:08;;;;;;;34.67;16.97;;;;;;;;;;5050348;28;20040;-69
2022/03/05 01:33:33;;;;;;;37.70;17.70;;;0.20;99.90;;;;;;5030461;28;20041;-68
2022/03/05 01:35:59;;;;;;;34.07;16.47;;;0.30;99.90;;;;;;5049804;28;20033;-68
2022/03/05 01:38:24;;;;;;;37.83;17.57;;;0.20;99.90;;;;;;5050548;28;20025;-69
2022/03/05 01:40:51;;;;;;;42.03;17.10;;;;;;;;;;5049888;28;20052;-69
2022/03/05 01:43:17;;;;;;;42.17;17.50;;;-0.20;99.90;;;;;;5050160;28;20021;-68
2022/03/05 01:45:42;;;;;;;37.03;17.40;;;0.00;99.90;;;;;;5050346;28;20366;-68
2022/03/05 01:48:08;;;;;;;35.77;18.80;;;0.20;99.90;;;;;;5049931;28;20477;-68
2022/03/05 01:50:34;;;;;;;40.43;19.60;;;0.30;99.90;;;;;;5050491;28;20424;-68
2022/03/05 01:53:00;;;;;;;38.40;17.67;;;0.10;99.90;;;;;;5049820;28;20032;-69
2022/03/05 01:55:25;;;;;;;44.27;19.73;;;0.10;99.90;;;;;;5050336;28;20033;-68
2022/03/05 01:57:51;;;;;;;38.07;18.23;;;;;;;;;;5049607;28;20035;-68
2022/03/05 02:00:18;;;;;;;34.00;17.57;;;0.20;99.90;;;;;;5049994;28;20037;-68
2022/03/05 02:02:45;;;;;;;38.27;19.27;;;0.00;99.90;;;;;;5049582;28;20044;-68
2022/03/05 02:05:11;;;;;;;36.70;17.80;;;-0.10;99.90;;;;;;5049644;28;20488;-68
2022/03/05 02:07:37;;;;;;;38.60;16.77;;;0.00;99.90;;;;;;5050157;28;20036;-68
2022/03/05 02:10:04;;;;;;;41.30;19.40;;;0.50;99.90;;;;;;5048126;28;20112;-68
2022/03/05 02:12:32;;;;;;;36.30;18.90;;;0.00;99.90;;;;;;5050034;28;20021;-68
2022/03/05 02:15:01;;;;;;;37.33;17.40;;;0.40;99.90;;;;;;5048781;28;20388;-68
2022/03/05 02:17:27;;;;;;;38.80;19.90;;;0.00;99.90;;;;;;5049997;28;20029;-68
2022/03/05 02:19:54;;;;;;;41.67;19.13;;;0.00;99.90;;;;;;5049286;28;20338;-68
2022/03/05 02:22:20;;;;;;;40.10;17.53;;;0.00;99.90;;;;;;5049979;28;20029;-69
2022/03/05 02:24:47;;;;;;;42.77;17.93;;;-0.20;99.90;;;;;;5049446;28;20033;-68
2022/03/05 02:27:13;;;;;;;41.63;18.57;;;-0.10;99.90;;;;;;5049487;28;20162;-68
2022/03/05 02:29:39;;;;;;;40.97;18.20;;;-0.30;99.90;;;;;;5049192;28;20123;-68
2022/03/05 02:32:05;;;;;;;41.40;17.90;;;0.00;99.90;;;;;;5049074;28;20040;-69
2022/03/05 02:34:31;;;;;;;40.13;19.53;;;0.30;99.90;;;;;;5049638;28;20021;-68
2022/03/05 02:36:56;;;;;;;36.47;18.90;;;-0.30;99.90;;;;;;5048955;28;20155;-68
2022/03/05 02:39:25;;;;;;;42.03;20.40;;;-0.30;99.90;;;;;;5049321;28;20067;-68
2022/03/05 02:41:52;;;;;;;40.07;19.63;;;-0.30;99.90;;;;;;5048915;28;20059;-68
2022/03/05 02:44:18;;;;;;;48.53;22.30;;;-0.40;99.90;;;;;;5049137;28;20083;-68
2022/03/05 02:46:43;;;;;;;40.63;19.17;;;-0.30;99.90;;;;;;5049901;28;20439;-68
2022/03/05 02:49:09;;;;;;;43.80;22.13;;;-0.40;99.90;;;;;;5048725;28;20021;-68
2022/03/05 02:51:35;;;;;;;50.73;22.77;;;-0.20;99.90;;;;;;5049805;28;20029;-68
2022/03/05 02:54:00;;;;;;;47.23;22.20;;;-0.20;99.90;;;;;;5049018;28;20044;-68
2022/03/05 02:56:26;;;;;;;50.00;22.93;;;-0.20;99.90;;;;;;5048238;28;20025;-68
2022/03/05 02:58:52;;;;;;;49.40;23.23;;;;;;;;;;5048322;28;20036;-68
2022/03/05 03:01:18;;;;;;;50.07;23.60;;;-0.50;99.90;;;;;;5049351;28;20401;-68
2022/03/05 03:03:43;;;;;;;45.43;19.63;;;-0.40;99.90;;;;;;5049449;28;20528;-68
2022/03/05 03:06:09;;;;;;;46.43;19.70;;;;;;;;;;5049172;28;20073;-68
2022/03/05 03:08:34;;;;;;;44.63;22.27;;;-0.60;99.90;;;;;;5049519;28;20393;-69
2022/03/05 03:11:00;;;;;;;49.50;21.87;;;-0.50;99.90;;;;;;5048979;28;20045;-68
2022/03/05 03:13:26;;;;;;;47.07;20.47;;;-0.60;99.90;;;;;;5048940;28;20033;-69
2022/03/05 03:15:52;;;;;;;49.77;21.83;;;;;;;;;;5048807;28;20380;-68
2022/03/05 03:18:18;;;;;;;51.47;23.47;;;;;;;;;;5048782;28;20013;-68
2022/03/05 03:20:44;;;;;;;50.00;21.67;;;-0.60;99.90;;;;;;5047951;28;20047;-68
2022/03/05 03:23:10;;;;;;;44.97;21.93;;;-0.30;99.90;;;;;;5047726;28;20025;-68
2022/03/05 03:25:38;;;;;;;46.93;21.73;;;-0.50;99.90;;;;;;5049114;28;20079;-68
2022/03/05 03:28:04;;;;;;;50.57;23.37;;;-0.30;99.90;;;;;;5048419;28;20146;-68
2022/03/05 03:30:30;;;;;;;50.00;22.40;;;;;;;;;;5049176;28;20075;-68
2022/03/05 03:32:56;;;;;;;50.53;22.50;;;;;;;;;;5048721;28;20474;-69
2022/03/05 03:35:22;;;;;;;52.77;22.93;;;;;;;;;;5049260;28;20064;-69
2022/03/05 03:37:48;;;;;;;50.27;23.50;;;;;;;;;;5049059;28;20052;-68
2022/03/05 03:40:16;;;;;;;45.63;20.27;;;0.10;99.90;;;;;;5048538;28;20045;-68
2022/03/05 03:42:43;;;;;;;51.60;22.37;;;-0.70;99.90;;;;;;5048681;28;20032;-69
2022/03/05 03:45:10;;;;;;;45.00;18.90;;;;;;;;;;5048749;28;20124;-68
2022/03/05 03:47:36;;;;;;;47.83;22.00;;;;;;;;;;5049800;28;20023;-69
2022/03/05 03:50:03;;;;;;;51.80;22.73;;;-0.70;99.90;;;;;;5052237;28;20836;-68
2022/03/05 03:52:29;;;;;;;48.80;24.60;;;-0.70;99.90;;;;;;5052566;28;20025;-69
2022/03/05 03:54:55;;;;;;;44.40;21.27;;;;;;;;;;5047947;28;20036;-69
2022/03/05 03:57:20;;;;;;;56.73;22.63;;;-0.50;99.90;;;;;;5031912;28;20036;-69
2022/03/05 03:59:47;;;;;;;51.00;23.10;;;-0.70;99.90;;;;;;5047719;28;20080;-69
2022/03/05 04:02:13;;;;;;;55.60;25.17;;;-0.60;99.90;;;;;;5032077;28;20079;-69
2022/03/05 04:04:39;;;;;;;48.73;22.07;;;;;;;;;;5032461;28;20439;-69
2022/03/05 04:09:49;;;;;;;65.25;27.17;;;;;;;;;;5035876;28;20028;-69
2022/03/05 04:12:14;;;;;;;48.97;22.63;;;-0.80;99.90;;;;;;5050390;28;20394;-69
2022/03/05 04:14:40;;;;;;;55.70;23.10;;;;;;;;;;5052287;28;20492;-69
2022/03/05 04:17:06;;;;;;;51.70;24.70;;;-0.60;99.90;;;;;;5051749;28;20123;-68
2022/03/05 04:19:32;;;;;;;51.50;22.87;;;-0.50;99.90;;;;;;5051686;28;20474;-69
2022/03/05 04:21:58;;;;;;;54.53;22.73;;;-0.80;99.90;;;;;;5051629;28;20037;-69
2022/03/05 04:24:24;;;;;;;51.60;23.57;;;;;;;;;;5051738;28;20029;-68
2022/03/05 04:26:49;;;;;;;57.87;24.67;;;-0.80;99.90;;;;;;5051324;28;20497;-69
2022/03/05 04:29:18;;;;;;;56.40;23.63;;;-0.90;99.90;;;;;;5051929;28;20577;-69
2022/03/05 04:31:43;;;;;;;58.27;25.70;;;-0.70;99.90;;;;;;5051690;28;20385;-69
2022/03/05 04:34:09;;;;;;;54.77;23.23;;;-0.60;99.90;;;;;;5051533;28;20040;-70
2022/03/05 04:36:35;;;;;;;57.47;22.37;;;;;;;;;;5041628;28;20113;-69
2022/03/05 04:39:00;;;;;;;55.47;24.70;;;-0.70;99.90;;;;;;5035303;28;20037;-69
2022/03/05 04:41:25;;;;;;;50.00;22.23;;;-0.80;99.90;;;;;;5033259;28;20209;-69
2022/03/05 04:43:51;;;;;;;50.40;20.67;;;-0.90;99.90;;;;;;5049784;28;20091;-70
2022/03/05 04:46:16;;;;;;;53.23;21.90;;;-0.60;99.90;;;;;;5051597;28;20029;-69
2022/03/05 04:48:42;;;;;;;52.20;24.13;;;-0.70;99.90;;;;;;5051686;28;20032;-68
2022/03/05 04:51:07;;;;;;;58.37;24.27;;;-0.90;99.90;;;;;;5051015;28;20037;-69
2022/03/05 04:53:33;;;;;;;53.63;24.37;;;-0.70;99.90;;;;;;5051515;28;20033;-68
2022/03/05 04:55:59;;;;;;;48.53;22.07;;;;;;;;;;5050479;28;20032;-69
2022/03/05 04:58:24;;;;;;;55.93;25.67;;;-0.90;99.90;;;;;;5051686;28;20025;-69
2022/03/05 05:00:50;;;;;;;51.97;23.13;;;-0.90;99.90;;;;;;5050941;28;20059;-69
2022/03/05 05:03:15;;;;;;;53.40;23.03;;;-0.70;99.90;;;;;;5049687;28;20060;-69
2022/03/05 05:05:41;;;;;;;67.23;24.17;;;-1.00;99.90;;;;;;5051166;28;20031;-69
2022/03/05 05:08:07;;;;;;;48.83;22.87;;;;;;;;;;5050519;28;20040;-69
2022/03/05 05:10:33;;;;;;;58.50;24.37;;;-1.00;99.90;;;;;;5050743;28;20036;-68
2022/03/05 05:12:59;;;;;;;50.73;21.30;;;-1.00;99.90;;;;;;5050788;28;20033;-68
2022/03/05 05:15:24;;;;;;;53.87;24.17;;;-0.70;99.90;;;;;;5051107;28;20036;-69
2022/03/05 05:17:50;;;;;;;48.87;21.77;;;;;;;;;;5050562;28;20397;-68
2022/03/05 05:20:16;;;;;;;56.60;24.30;;;-0.70;99.90;;;;;;5049416;28;20029;-69
2022/03/05 05:22:42;;;;;;;56.70;26.30;;;;;;;;;;5038454;28;20041;-68
2022/03/05 05:25:08;;;;;;;59.27;26.33;;;-0.90;99.90;;;;;;5042792;28;20093;-68
2022/03/05 05:27:38;;;;;;;52.53;22.83;;;-1.00;99.90;;;;;;5050803;28;20025;-68
2022/03/05 05:30:06;;;;;;;57.73;25.60;;;-0.80;99.90;;;;;;5050315;28;20033;-68
2022/03/05 05:32:32;;;;;;;48.87;21.50;;;-0.80;99.90;;;;;;5049524;28;20418;-69
2022/03/05 05:34:57;;;;;;;57.33;25.70;;;-1.00;99.90;;;;;;5050211;28;20029;-68
2022/03/05 05:37:23;;;;;;;59.20;24.87;;;-0.80;99.90;;;;;;5049327;28;20111;-69
2022/03/05 05:39:49;;;;;;;56.67;23.27;;;;;;;;;;5049932;28;20049;-68
2022/03/05 05:42:14;;;;;;;50.37;22.90;;;-1.00;99.90;;;;;;5050527;28;20489;-68
2022/03/05 05:44:40;;;;;;;52.90;23.60;;;-1.00;99.90;;;;;;5050756;28;20021;-68
2022/03/05 05:47:06;;;;;;;46.83;20.60;;;-0.90;99.90;;;;;;5048442;28;20032;-69
2022/03/05 05:49:32;;;;;;;49.73;21.83;;;-0.80;99.90;;;;;;5050337;28;20032;-68
2022/03/05 05:51:57;;;;;;;51.77;23.87;;;-0.90;99.90;;;;;;5049717;28;20415;-69
2022/03/05 05:54:23;;;;;;;49.77;22.67;;;;;;;;;;5050069;28;20108;-68
2022/03/05 05:56:49;;;;;;;51.03;22.13;;;-1.10;99.90;;;;;;5049881;28;20017;-69
2022/03/05 05:59:15;;;;;;;51.97;21.80;;;-1.00;99.90;;;;;;5048802;28;20025;-68
2022/03/05 06:01:41;;;;;;;65.83;24.07;;;-1.00;99.90;;;;;;5050131;28;20043;-68
2022/03/05 06:04:07;;;;;;;54.47;22.23;;;;;;;;;;5049725;28;20029;-68
2022/03/05 06:06:33;;;;;;;63.03;23.73;;;-1.00;99.90;;;;;;5050144;28;20107;-69
2022/03/05 06:08:59;;;;;;;45.63;20.57;;;;;;;;;;5031095;28;20459;-68
2022/03/05 06:11:24;;;;;;;51.73;20.73;;;-1.30;99.90;;;;;;5029606;28;20443;-68
2022/03/05 06:13:50;;;;;;;53.03;21.83;;;;;;;;;;5029880;28;20369;-68
2022/03/05 06:16:16;;;;;;;56.03;26.03;;;-1.30;99.90;;;;;;5028646;28;20029;-68
2022/03/05 06:18:42;;;;;;;62.93;23.87;;;;;;;;;;5034952;28;20063;-68
2022/03/05 06:21:08;;;;;;;57.20;22.33;;;-1.20;99.90;;;;;;5049578;28;20478;-68
2022/03/05 06:23:34;;;;;;;59.97;24.47;;;-1.00;99.90;;;;;;5049405;28;20403;-68
2022/03/05 06:25:59;;;;;;;49.80;22.93;;;-1.30;99.90;;;;;;5049310;28;20040;-68
2022/03/05 06:28:25;;;;;;;51.50;21.37;;;-1.30;99.90;;;;;;5049906;28;20040;-68
2022/03/05 06:30:51;;;;;;;55.07;21.73;;;-1.20;99.90;;;;;;5049521;28;20025;-68
2022/03/05 06:33:16;;;;;;;50.07;20.97;;;-1.10;99.90;;;;;;5049468;28;20473;-68
2022/03/05 06:35:42;;;;;;;53.67;23.10;;;;;;;;;;5048229;28;20100;-69
2022/03/05 06:38:08;;;;;;;45.33;21.13;;;;;;;;;;5048734;28;20078;-68
2022/03/05 06:40:34;;;;;;;54.43;22.67;;;-0.80;99.90;;;;;;5049573;28;20048;-68
2022/03/05 06:42:59;;;;;;;48.20;22.33;;;-1.20;99.90;;;;;;5048937;28;20037;-68
2022/03/05 06:45:25;;;;;;;50.30;21.23;;;;;;;;;;5049707;28;20040;-69
2022/03/05 06:47:51;;;;;;;64.30;22.93;;;-1.20;99.90;;;;;;5049247;28;20029;-70
2022/03/05 06:50:16;;;;;;;51.90;20.23;;;-1.00;99.90;;;;;;5049236;28;20031;-68
2022/03/05 06:52:42;;;;;;;52.43;22.07;;;;;;;;;;5049221;28;20025;-68
2022/03/05 06:55:09;;;;;;;50.43;21.13;;;-1.10;99.90;;;;;;5037845;28;20048;-68
2022/03/05 06:57:34;;;;;;;49.33;20.07;;;-0.90;99.90;;;;;;5029612;28;20022;-68
2022/03/05 07:00:00;;;;;;;61.93;26.83;;;-0.90;99.90;;;;;;5029051;28;20034;-68
2022/03/05 07:02:26;;;;;;;55.20;22.10;;;-0.80;99.90;;;;;;5042817;28;20041;-68
2022/03/05 07:04:51;;;;;;;53.63;22.57;;;-0.70;99.90;;;;;;5048614;28;20036;-69
2022/03/05 07:07:17;;;;;;;55.70;22.63;;;;;;;;;;5048701;28;20029;-69
2022/03/05 07:09:43;;;;;;;54.23;24.40;;;-0.70;99.90;;;;;;5048077;28;20021;-69
2022/03/05 07:12:09;;;;;;;49.00;21.57;;;-0.60;99.90;;;;;;5048852;28;20052;-69
2022/03/05 07:14:35;;;;;;;52.83;22.13;;;;;;;;;;5048121;28;20115;-69
2022/03/05 07:17:01;;;;;;;47.20;21.07;;;-0.50;99.90;;;;;;5048770;28;20378;-69
2022/03/05 07:19:27;;;;;;;58.40;22.50;;;;;;;;;;5048689;28;20029;-68
2022/03/05 07:21:53;;;;;;;61.70;24.23;;;-0.40;99.90;;;;;;5049005;28;20037;-68
2022/03/05 07:24:18;;;;;;;49.07;22.73;;;-0.40;99.90;;;;;;5052512;28;20095;-69
2022/03/05 07:26:44;;;;;;;69.23;28.00;;;-0.40;99.90;;;;;;5053171;28;20332;-69
2022/03/05 07:29:09;;;;;;;61.07;26.87;;;-0.40;99.90;;;;;;5052458;28;20374;-69
2022/03/05 07:31:36;;;;;;;50.27;23.43;;;;;;;;;;5053207;28;20025;-68
2022/03/05 07:34:02;;;;;;;54.33;25.50;;;;;;;;;;5051962;28;20112;-68
2022/03/05 07:36:27;;;;;;;53.47;26.17;;;-0.20;99.90;;;;;;5052342;28;20037;-69
2022/03/05 07:38:56;;;;;;;49.63;23.83;;;-0.20;99.90;;;;;;5051980;28;20382;-68
2022/03/05 07:41:21;;;;;;;48.70;20.80;;;-0.20;99.90;;;;;;5052183;28;20056;-68
2022/03/05 07:43:47;;;;;;;54.93;25.53;;;0.20;99.90;;;;;;5052793;28;20017;-68
2022/03/05 07:46:12;;;;;;;55.57;23.23;;;0.00;99.90;;;;;;5052293;28;20111;-68
2022/03/05 07:48:38;;;;;;;51.80;22.37;;;;;;;;;;5052154;28;20386;-68
2022/03/05 07:51:04;;;;;;;55.97;24.30;;;0.20;99.90;;;;;;5050565;28;20231;-69
2022/03/05 07:53:31;;;;;;;49.33;22.87;;;0.40;99.90;;;;;;5032698;28;20025;-68
2022/03/05 07:55:57;;;;;;;57.23;22.90;;;0.40;99.90;;;;;;5030928;28;20112;-69
2022/03/05 07:58:23;;;;;;;52.37;21.43;;;0.60;99.90;;;;;;5033231;28;20040;-68
2022/03/05 08:00:49;;;;;;;47.87;21.03;;;;;;;;;;5038597;28;20414;-69
2022/03/05 08:03:14;;;;;;;55.00;22.63;;;0.60;99.90;;;;;;5029214;28;20026;-68
2022/03/05 08:05:41;;;;;;;44.57;21.50;;;0.60;99.90;;;;;;5037810;28;20037;-68
2022/03/05 08:08:07;;;;;;;55.27;21.27;;;0.70;99.90;;;;;;5040599;28;20061;-68
2022/03/05 08:10:33;;;;;;;44.43;21.37;;;;;;;;;;5031725;28;20079;-68
2022/03/05 08:12:59;;;;;;;47.83;20.50;;;;;;;;;;5033055;28;20091;-68
2022/03/05 08:15:25;;;;;;;46.00;22.07;;;;;;;;;;5032066;28;20100;-68
2022/03/05 08:17:55;;;;;;;49.40;21.37;;;1.20;99.90;;;;;;5046480;28;20032;-68
2022/03/05 08:20:22;;;;;;;43.47;19.70;;;0.90;99.90;;;;;;5050981;28;20029;-69
2022/03/05 08:22:49;;;;;;;51.33;20.47;;;1.20;99.90;;;;;;5052230;28;20068;-69
2022/03/05 08:25:15;;;;;;;52.43;20.70;;;1.40;99.90;;;;;;5051063;28;20044;-68
2022/03/05 08:27:41;;;;;;;50.47;21.83;;;1.20;99.90;;;;;;5051593;28;20402;-68
2022/03/05 08:30:08;;;;;;;52.17;20.50;;;1.30;99.90;;;;;;5040388;28;20159;-68
2022/03/05 08:32:33;;;;;;;46.87;21.07;;;1.30;99.90;;;;;;5043288;28;20033;-69
2022/03/05 08:34:59;;;;;;;49.20;20.23;;;1.40;99.90;;;;;;5051173;28;20389;-68
2022/03/05 08:37:25;;;;;;;47.83;21.77;;;;;;;;;;5051556;28;20033;-68
2022/03/05 08:39:50;;;;;;;49.37;22.57;;;1.70;99.90;;;;;;5051353;28;20056;-68
2022/03/05 08:42:16;;;;;;;53.43;22.77;;;1.80;99.90;;;;;;5051502;28;20033;-68
2022/03/05 08:44:42;;;;;;;46.77;20.23;;;1.50;99.90;;;;;;5051278;28;20449;-68
2022/03/05 08:47:07;;;;;;;45.17;21.80;;;1.70;99.90;;;;;;5050233;28;20117;-68
2022/03/05 08:49:33;;;;;;;47.17;22.17;;;;;;;;;;5051475;28;20099;-68
2022/03/05 08:51:59;;;;;;;48.97;21.53;;;1.80;99.90;;;;;;5051062;28;20028;-68
2022/03/05 08:54:25;;;;;;;47.37;21.13;;;1.80;99.90;;;;;;5050993;28;20043;-68
2022/03/05 08:56:51;;;;;;;43.03;21.77;;;2.10;99.90;;;;;;5050995;28;20040;-68
2022/03/05 08:59:17;;;;;;;51.27;22.83;;;2.00;99.90;;;;;;5051257;28;20120;-68
2022/03/05 09:01:43;;;;;;;47.23;22.77;;;2.00;99.90;;;;;;5049483;28;20124;-68
2022/03/05 09:04:09;;;;;;;48.63;23.60;;;2.10;99.90;;;;;;5050890;28;20029;-68
2022/03/05 09:06:35;;;;;;;50.43;25.43;;;2.10;99.90;;;;;;5051420;28;20082;-68
2022/03/05 09:09:01;;;;;;;44.77;22.67;;;2.40;99.90;;;;;;5050575;28;20393;-68
2022/03/05 09:11:26;;;;;;;51.03;23.27;;;2.60;99.90;;;;;;5050521;28;20037;-69
2022/03/05 09:13:52;;;;;;;47.20;21.77;;;2.40;99.90;;;;;;5050667;28;20043;-69
2022/03/05 09:16:18;;;;;;;47.20;22.80;;;2.40;99.90;;;;;;5049868;28;20021;-68
2022/03/05 09:18:44;;;;;;;46.10;20.23;;;;;;;;;;5050779;28;20039;-68
2022/03/05 09:21:10;;;;;;;51.73;23.13;;;2.40;99.90;;;;;;5050197;28;20367;-69
2022/03/05 09:23:35;;;;;;;47.30;22.30;;;2.70;99.90;;;;;;5051005;28;20086;-69
2022/03/05 09:26:01;;;;;;;53.17;24.50;;;2.80;99.90;;;;;;5050597;28;20508;-69
2022/03/05 09:28:27;;;;;;;46.73;22.77;;;;;;;;;;5050811;28;20074;-68
2022/03/05 09:30:53;;;;;;;52.43;23.97;;;2.80;99.90;;;;;;5048787;28;20029;-68
2022/03/05 09:33:22;;;;;;;55.63;24.40;;;2.80;99.90;;;;;;5050518;28;20035;-68
2022/03/05 09:35:48;;;;;;;50.27;23.33;;;;;;;;;;5050532;28;20027;-69
2022/03/05 09:38:14;;;;;;;46.63;23.20;;;3.00;99.90;;;;;;5050305;28;20448;-68
2022/03/05 09:40:40;;;;;;;51.00;24.67;;;;;;;;;;5049515;28;20136;-69
2022/03/05 09:43:06;;;;;;;57.33;25.63;;;;;;;;;;5049494;28;20108;-69
2022/03/05 09:45:31;;;;;;;44.57;24.33;;;;;;;;;;5049310;28;20797;-69
2022/03/05 09:47:57;;;;;;;53.43;25.93;;;;;;;;;;5050241;28;20035;-68
2022/03/05 09:50:32;;;;;;;48.13;24.07;;;3.50;99.90;;;;;;5050294;28;20029;-69
2022/03/05 09:52:58;;;;;;;53.73;23.83;;;3.50;99.90;;;;;;5050202;28;20025;-69
2022/03/05 09:55:23;;;;;;;51.63;25.13;;;3.50;99.90;;;;;;5050168;28;20029;-69
2022/03/05 09:57:49;;;;;;;56.43;25.13;;;;;;;;;;5047381;28;20389;-68
2022/03/05 10:00:15;;;;;;;54.23;24.83;;;3.60;99.90;;;;;;5029097;28;20040;-69
2022/03/05 10:02:42;;;;;;;50.47;24.03;;;3.70;99.90;;;;;;5029092;28;20037;-68
2022/03/05 10:05:37;;;;;;;48.23;23.93;;;3.80;99.90;;;;;;5029666;28;20124;-69
2022/03/05 10:08:07;;;;;;;44.73;23.33;;;3.70;99.90;;;;;;5033544;28;20041;-69
2022/03/05 10:10:39;;;;;;;42.27;22.63;;;3.80;99.90;;;;;;5040721;28;20473;-69
2022/03/05 10:13:26;;;;;;;45.13;22.77;;;3.70;99.90;;;;;;5049581;28;20025;-68
2022/03/05 10:15:54;;;;;;;52.10;24.80;;;3.80;99.90;;;;;;5049801;28;20033;-69
2022/03/05 10:18:28;;;;;;;47.73;25.27;;;4.10;99.90;;;;;;5048496;28;20377;-69
2022/03/05 10:20:53;;;;;;;50.03;24.60;;;;;;;;;;5049018;28;20473;-69
2022/03/05 10:23:20;;;;;;;51.87;25.17;;;4.10;99.90;;;;;;5049098;28;20143;-69
2022/03/05 10:25:47;;;;;;;52.63;25.13;;;4.20;99.90;;;;;;5048866;28;20024;-69
2022/03/05 10:28:17;;;;;;;45.10;22.97;;;4.20;99.90;;;;;;5048087;28;20025;-69
2022/03/05 10:30:48;;;;;;;50.27;22.57;;;4.20;99.90;;;;;;5049805;28;20036;-69
2022/03/05 10:33:24;;;;;;;49.47;24.43;;;4.20;99.90;;;;;;5049305;28;20028;-68
2022/03/05 10:35:50;;;;;;;49.97;23.87;;;;;;;;;;5048636;28;20064;-68
2022/03/05 10:38:16;;;;;;;49.03;24.10;;;4.30;99.90;;;;;;5049717;28;20021;-69
2022/03/05 10:40:42;;;;;;;47.43;24.30;;;;;;;;;;5049036;28;20068;-69
2022/03/05 10:43:08;;;;;;;56.53;25.57;;;4.20;99.90;;;;;;5048948;28;20823;-68
2022/03/05 10:45:50;;;;;;;46.70;23.90;;;4.30;99.90;;;;;;5049101;28;20029;-69
2022/03/05 10:48:27;;;;;;;53.37;26.13;;;4.40;99.90;;;;;;5049453;28;20112;-68
2022/03/05 10:51:02;;;;;;;49.47;25.83;;;4.30;99.90;;;;;;5049310;28;20466;-69
2022/03/05 10:53:47;;;;;;;47.50;24.90;;;4.50;99.90;;;;;;5049502;28;20057;-69
2022/03/05 10:56:28;;;;;;;49.63;25.23;;;4.60;99.90;;;;;;5049150;28;20052;-68
2022/03/05 10:59:01;;;;;;;49.77;25.97;;;4.50;99.90;;;;;;5052777;28;20100;-69
2022/03/05 11:01:27;;;;;;;43.10;22.03;;;4.40;99.90;;;;;;5053556;28;20128;-68
2022/03/05 11:03:53;;;;;;;55.23;26.57;;;4.50;99.90;;;;;;5053537;28;20029;-68
2022/03/05 11:06:23;;;;;;;48.73;25.30;;;4.50;99.90;;;;;;5053437;28;20107;-69
2022/03/05 11:08:49;;;;;;;53.60;25.80;;;4.60;99.90;;;;;;5053223;28;20029;-68
2022/03/05 11:11:17;;;;;;;45.23;23.43;;;4.70;99.90;;;;;;5053271;28;20520;-69
2022/03/05 11:13:42;;;;;;;45.77;23.83;;;4.70;99.90;;;;;;5052803;28;20374;-68
2022/03/05 11:16:09;;;;;;;44.13;22.80;;;4.60;99.90;;;;;;5052251;28;20029;-69
2022/03/05 11:18:41;;;;;;;44.23;22.47;;;4.50;99.90;;;;;;5052785;28;20527;-68
2022/03/05 11:21:08;;;;;;;48.40;24.40;;;4.50;99.90;;;;;;5052098;28;20045;-69
2022/03/05 11:23:35;;;;;;;45.10;23.53;;;4.80;99.90;;;;;;5052734;28;20029;-69
2022/03/05 11:26:02;;;;;;;46.27;23.50;;;4.70;99.90;;;;;;5049607;28;20036;-68
2022/03/05 11:28:54;;;;;;;47.20;24.27;;;4.70;99.90;;;;;;5051810;28;20029;-69
2022/03/05 11:31:28;;;;;;;44.87;24.43;;;4.80;99.90;;;;;;5046564;28;20048;-69
2022/03/05 11:33:54;;;;;;;46.30;23.97;;;5.00;99.90;;;;;;5041063;28;20467;-69
2022/03/05 11:36:36;;;;;;;45.57;26.67;;;4.60;99.90;;;;;;5052582;28;20029;-69
2022/03/05 11:39:08;;;;;;;45.53;21.63;;;4.90;99.90;;;;;;5050816;28;20074;-69
2022/03/05 11:41:47;;;;;;;42.80;21.97;;;5.00;99.90;;;;;;5052285;28;20127;-69
2022/03/05 11:44:14;;;;;;;45.37;24.17;;;5.10;99.90;;;;;;5051169;28;20025;-69
2022/03/05 11:46:40;;;;;;;47.97;22.70;;;;;;;;;;5051094;28;20032;-70
2022/03/05 11:49:08;;;;;;;44.73;24.77;;;5.20;99.90;;;;;;5052601;28;20161;-70
2022/03/05 11:51:50;;;;;;;41.53;23.23;;;5.00;99.90;;;;;;5052969;28;20099;-70
2022/03/05 11:54:17;;;;;;;42.77;23.53;;;;;;;;;;5052379;28;20033;-69
2022/03/05 11:57:02;;;;;;;46.70;24.10;;;4.90;99.90;;;;;;5049082;28;20025;-69
2022/03/05 11:59:36;;;;;;;47.10;22.13;;;5.50;99.90;;;;;;5052551;28;20021;-69
2022/03/05 12:02:02;;;;;;;44.83;21.08;;;5.50;99.90;;;;;;5051828;28;20063;-69
2022/03/05 12:04:29;;;;;;;46.37;23.73;;;5.40;99.90;;;;;;5051773;28;20498;-72
2022/03/05 12:06:59;;;;;;;41.27;21.90;;;5.40;99.90;;;;;;5051291;28;20025;-69
2022/03/05 12:09:34;;;;;;;44.93;22.47;;;5.40;99.90;;;;;;5050772;28;20535;-69
2022/03/05 12:12:00;;;;;;;40.30;20.73;;;;;;;;;;5051106;28;20048;-70
2022/03/05 12:15:00;;;;;;;37.50;20.97;;;5.40;99.90;;;;;;5051819;28;20036;-69
2022/03/05 12:17:30;;;;;;;43.23;24.13;;;5.20;99.90;;;;;;5042905;28;20540;-70
2022/03/05 12:19:56;;;;;;;43.47;23.10;;;5.40;99.90;;;;;;5034405;28;20041;-70
2022/03/05 12:22:21;;;;;;;43.27;22.27;;;5.50;99.90;;;;;;5052164;28;20037;-69
2022/03/05 12:24:47;;;;;;;45.50;22.30;;;5.60;99.90;;;;;;5051754;28;20029;-69
2022/03/05 12:27:14;;;;;;;43.27;22.73;;;5.50;99.90;;;;;;5051799;28;20473;-69
2022/03/05 12:29:50;;;;;;;34.77;19.83;;;5.70;99.90;;;;;;5052175;28;20049;-69
2022/03/05 12:32:16;;;;;;;36.87;19.73;;;;;;;;;;5051832;28;20017;-69
2022/03/05 12:34:42;;;;;;;46.77;25.73;;;;;;;;;;5051869;28;20036;-70
2022/03/05 12:37:08;;;;;;;45.53;24.30;;;5.60;99.90;;;;;;5051588;28;20033;-69
2022/03/05 12:39:34;;;;;;;41.50;20.57;;;5.60;99.90;;;;;;5051386;28;20060;-69
2022/03/05 12:42:03;;;;;;;40.40;22.30;;;5.60;99.90;;;;;;5051767;28;20067;-69
2022/03/05 12:44:36;;;;;;;42.07;22.93;;;5.70;99.90;;;;;;5051713;28;20020;-69
2022/03/05 12:47:02;;;;;;;46.17;23.17;;;;;;;;;;5051252;28;20116;-69
2022/03/05 12:49:28;;;;;;;39.47;21.50;;;;;;;;;;5049410;28;20033;-70
2022/03/05 12:51:53;;;;;;;38.77;20.80;;;5.80;99.90;;;;;;5051621;28;20109;-69
2022/03/05 12:54:19;;;;;;;40.13;22.10;;;5.60;99.90;;;;;;5051249;28;20032;-69
2022/03/05 12:56:45;;;;;;;42.87;21.50;;;;;;;;;;5051451;28;20024;-69
2022/03/05 12:59:13;;;;;;;40.80;22.37;;;6.00;99.90;;;;;;5051132;28;20017;-69